Погода Нгабуна 2 недели

Южная Провинция, Малави

18 - 31 июля
  • 18июля
    Сегодня
    +12°
    +25°
    Ясно и безоблачно
    ВремяПогодаТемператураВлажностьДавлениеВетер, м/сВероятность осадков
    02:00Ясно и безоблачно+12°C83 %682 мм1.6 м/с5 %
    05:00Практически безоблачно+11°C96 %681 мм1.5 м/с5 %
    08:00Ясно и безоблачно+18°C69 %685 мм1.5 м/с5 %
    11:00Ясно и безоблачно+22°C44 %686 мм1.7 м/с5 %
    14:00Ясно и безоблачно+24°C37 %684 мм2.6 м/с3 %
    17:00Ясно и безоблачно+21°C57 %683 мм1.8 м/с5 %
    20:00Ясно и безоблачно+17°C71 %683 мм1.7 м/с5 %
    23:00Ясно и безоблачно+16°C71 %682 мм1.3 м/с5 %
  • 19июля
    Пятница
    +15°
    +26°
    Практически безоблачно
    ВремяПогодаТемператураВлажностьДавлениеВетер, м/сВероятность осадков
    02:00Ясно и безоблачно+15°C73 %681 мм0.9 м/с5 %
    05:00Ясно и безоблачно+13°C74 %681 мм1.2 м/с5 %
    08:00Ясно и безоблачно+19°C65 %684 мм1.0 м/с5 %
    11:00Ясно и безоблачно+23°C46 %684 мм0.6 м/с5 %
    14:00Практически безоблачно+25°C42 %683 мм1.4 м/с5 %
    17:00Практически безоблачно+22°C61 %682 мм1.6 м/с5 %
    20:00Ясно и безоблачно+20°C58 %683 мм0.7 м/с5 %
    23:00Практически безоблачно+19°C59 %682 мм0.7 м/с5 %
  • 20июля
    Суббота
    +13°
    +27°
    Практически безоблачно
    ВремяПогодаТемператураВлажностьДавлениеВетер, м/сВероятность осадков
    02:00Небольшая облачность+17°C63 %681 мм1.2 м/с5 %
    05:00Ясно и безоблачно+15°C68 %680 мм1.1 м/с5 %
    08:00Ясно и безоблачно+21°C62 %683 мм1.5 м/с5 %
    11:00Ясно и безоблачно+25°C43 %683 мм0.3 м/с5 %
    14:00Практически безоблачно+26°C43 %682 мм2.3 м/с5 %
    17:00Ясно и безоблачно+23°C54 %682 мм1.8 м/с5 %
    20:00Ясно и безоблачно+20°C56 %682 мм2.2 м/с5 %
    23:00Ясно и безоблачно+16°C69 %681 мм2.1 м/с5 %
  • 21июля
    Воскресенье
    +11°
    +26°
    Небольшая облачность
    ВремяПогодаТемператураВлажностьДавлениеВетер, м/сВероятность осадков
    02:00Ясно и безоблачно+14°C83 %680 мм1.3 м/с5 %
    05:00Ясно и безоблачно+14°C77 %680 мм1.5 м/с5 %
    08:00Ясно и безоблачно+20°C61 %683 мм0.8 м/с5 %
    11:00Ясно и безоблачно+24°C47 %684 мм1.4 м/с5 %
    14:00Небольшая облачность+26°C39 %683 мм2.1 м/с5 %
    17:00Практически безоблачно+22°C53 %682 мм1.9 м/с5 %
    20:00Ясно и безоблачно+18°C65 %682 мм2.4 м/с5 %
    23:00Ясно и безоблачно+16°C80 %682 мм1.8 м/с5 %
  • 22июля
    Понедельник
    +10°
    +25°
    Небольшая облачность
    ВремяПогодаТемператураВлажностьДавлениеВетер, м/сВероятность осадков
    02:00Практически безоблачно+13°C93 %681 мм2.0 м/с5 %
    05:00Ясно и безоблачно+12°C94 %682 мм1.6 м/с5 %
    08:00Практически безоблачно+17°C77 %684 мм1.8 м/с5 %
    11:00Небольшая облачность+22°C55 %685 мм2.1 м/с5 %
    14:00Небольшая облачность+25°C46 %684 мм2.5 м/с5 %
    17:00Ясно и безоблачно+21°C56 %684 мм1.9 м/с5 %
    20:00Ясно и безоблачно+18°C63 %684 мм2.3 м/с5 %
    23:00Ясно и безоблачно+14°C85 %683 мм1.7 м/с5 %
Мы используем cookies
Соглашаюсь